CheckWX is a tool to help pilots better visualize weather data.  It is not intended as a substitute for an official pre-flight weather briefing.

07:42:27 UTC

DAAJ TAF
Djanet Inedbirene Airport
Djanet, Algeria
TAF DAAJ 200500Z 2006/2106 06010KT 6000 NSC PROB30 2006/2010 4000 HZ BECMG 2008/2011 20010KT PROB30 TEMPO 2014/2018 22015G25KT 3000 DRSA FEW040TCU BECMG 2018/2021 06012KT

Jun-20@
06:00 UTC

Jun-20 @ 06:00 UTC

Jun-20@
08:00 UTC

Jun-20 @ 08:00 UTC

TAF DAAJ 200500Z 2006/2106 06010KT 6000 NSC
Wind
  • 060° at 10 KTS
Cloud Levels
  • No significant clouds

Jun-20@
06:00 UTC

Jun-20 @ 06:00 UTC

Jun-20@
10:00 UTC

Jun-20 @ 10:00 UTC

PROB30 2006/2010 4000 HZ

Probable - 30% Likelihood

Probable - 30% Likelihood during this time.

Conditions
Haze

Jun-20@
08:00 UTC

Jun-20 @ 08:00 UTC

Jun-20@
18:00 UTC

Jun-20 @ 18:00 UTC

BECMG 2008/2011 20010KT

Becoming

Becoming Conditions expected by Thu, Jun 20, 2019 @ 11:00 UTC

Wind
  • 200° at 10 KTS
Cloud Levels
  • No significant clouds

Jun-20@
14:00 UTC

Jun-20 @ 14:00 UTC

Jun-20@
18:00 UTC

Jun-20 @ 18:00 UTC

PROB30 TEMPO 2014/2018 22015G25KT 3000 DRSA FEW040TCU

Temporary - 30% Likelihood

Temporary - 30% Likelihood during this time.

Wind
  • 220° at 15 KTS
  • {Gusting to 25 KTS
Conditions
Low drifting Sand
Cloud Levels
  • Few at 4,000' AGL

Jun-20@
18:00 UTC

Jun-20 @ 18:00 UTC

Jun-21@
06:00 UTC

Jun-21 @ 06:00 UTC

BECMG 2018/2021 06012KT

Becoming

Becoming Conditions expected by Thu, Jun 20, 2019 @ 21:00 UTC

Wind
  • 060° at 12 KTS
Cloud Levels
  • No significant clouds